Terminal Aerodrome Forecast
Issued by NWS Wilmington, OH

Home | Current Version | Previous Version | Text Only | Print | Product List | Glossary On
Versions: 1 2 3 4 5 6 7 8 9 10 11 12 13 14 15 16 17 18 19 20 21 22 23 24 25 26 27 28 29 30 31 32 33 34 35 36 37 38 39 40 41 42 43 44 45 46 47 48 49 50
000
FTUS41 KILN 171417 AAB
TAFILN
TAF AMD
KILN 171417Z 1714/1812 21011KT P6SM BKN009 BKN025 OVC090
      TEMPO 1714/1715 -SHRA BKN025
     FM171500 23006KT P6SM VCSH SCT015 BKN100
     FM171900 25006KT P6SM VCTS BKN040CB BKN100
      TEMPO 1720/1724 5SM -TSRA OVC035CB
     FM180300 VRB03KT 3SM BR SCT025 BKN100
     FM181000 VRB03KT P6SM VCSH BKN025=

USA.gov is the U.S. government's official web portal to all federal, state and local government web resources and services.